sensor_id;sensor_type;location;lat;lon;timestamp;P1;durP1;ratioP1;P2;durP2;ratioP2
57325;SDS011;43161;50.950;18.224;2023-04-01T00:00:54;13.30;;;6.60;;
57325;SDS011;43161;50.950;18.224;2023-04-01T00:03:21;13.40;;;6.40;;
57325;SDS011;43161;50.950;18.224;2023-04-01T00:05:47;14.90;;;6.40;;
57325;SDS011;43161;50.950;18.224;2023-04-01T00:08:13;15.00;;;6.60;;
57325;SDS011;43161;50.950;18.224;2023-04-01T00:10:40;15.10;;;6.50;;
57325;SDS011;43161;50.950;18.224;2023-04-01T00:13:06;13.30;;;6.00;;
57325;SDS011;43161;50.950;18.224;2023-04-01T00:15:32;16.20;;;6.50;;
57325;SDS011;43161;50.950;18.224;2023-04-01T00:17:58;12.30;;;6.30;;
57325;SDS011;43161;50.950;18.224;2023-04-01T00:20:25;13.90;;;6.70;;
57325;SDS011;43161;50.950;18.224;2023-04-01T00:22:51;13.30;;;7.00;;
57325;SDS011;43161;50.950;18.224;2023-04-01T00:25:16;15.60;;;7.40;;
57325;SDS011;43161;50.950;18.224;2023-04-01T00:27:42;14.40;;;7.20;;
57325;SDS011;43161;50.950;18.224;2023-04-01T00:30:08;14.00;;;6.80;;
57325;SDS011;43161;50.950;18.224;2023-04-01T00:32:35;15.40;;;7.30;;
57325;SDS011;43161;50.950;18.224;2023-04-01T00:35:00;17.40;;;7.20;;
57325;SDS011;43161;50.950;18.224;2023-04-01T00:37:27;13.40;;;7.40;;
57325;SDS011;43161;50.950;18.224;2023-04-01T00:39:53;14.10;;;7.20;;
57325;SDS011;43161;50.950;18.224;2023-04-01T00:42:19;14.70;;;7.70;;
57325;SDS011;43161;50.950;18.224;2023-04-01T00:44:47;14.90;;;7.00;;
57325;SDS011;43161;50.950;18.224;2023-04-01T00:47:15;14.10;;;7.40;;
57325;SDS011;43161;50.950;18.224;2023-04-01T00:49:42;14.10;;;7.20;;
57325;SDS011;43161;50.950;18.224;2023-04-01T00:52:11;13.90;;;7.70;;
57325;SDS011;43161;50.950;18.224;2023-04-01T00:54:40;14.60;;;7.90;;
57325;SDS011;43161;50.950;18.224;2023-04-01T00:59:50;15.20;;;7.70;;
57325;SDS011;43161;50.950;18.224;2023-04-01T01:02:18;17.60;;;8.60;;
57325;SDS011;43161;50.950;18.224;2023-04-01T01:04:44;15.30;;;8.90;;
57325;SDS011;43161;50.950;18.224;2023-04-01T01:15:20;14.80;;;8.50;;
57325;SDS011;43161;50.950;18.224;2023-04-01T01:23:49;17.20;;;9.00;;
57325;SDS011;43161;50.950;18.224;2023-04-01T01:37:14;18.00;;;8.70;;
57325;SDS011;43161;50.950;18.224;2023-04-01T01:39:42;16.30;;;8.60;;
57325;SDS011;43161;50.950;18.224;2023-04-01T01:42:11;17.00;;;8.20;;
57325;SDS011;43161;50.950;18.224;2023-04-01T01:44:38;17.00;;;9.10;;
57325;SDS011;43161;50.950;18.224;2023-04-01T01:47:05;16.10;;;8.60;;
57325;SDS011;43161;50.950;18.224;2023-04-01T01:49:32;15.30;;;8.60;;
57325;SDS011;43161;50.950;18.224;2023-04-01T01:51:59;16.70;;;8.60;;
57325;SDS011;43161;50.950;18.224;2023-04-01T01:54:25;15.00;;;7.60;;
57325;SDS011;43161;50.950;18.224;2023-04-01T01:56:52;14.50;;;8.00;;
57325;SDS011;43161;50.950;18.224;2023-04-01T01:59:23;17.10;;;8.50;;
57325;SDS011;43161;50.950;18.224;2023-04-01T02:01:50;16.10;;;7.90;;
57325;SDS011;43161;50.950;18.224;2023-04-01T02:04:17;15.90;;;8.60;;
57325;SDS011;43161;50.950;18.224;2023-04-01T02:06:53;14.80;;;7.80;;
57325;SDS011;43161;50.950;18.224;2023-04-01T02:09:29;16.30;;;8.00;;
57325;SDS011;43161;50.950;18.224;2023-04-01T02:17:22;16.60;;;8.40;;
57325;SDS011;43161;50.950;18.224;2023-04-01T02:19:52;19.30;;;8.90;;
57325;SDS011;43161;50.950;18.224;2023-04-01T02:22:20;16.60;;;8.20;;
57325;SDS011;43161;50.950;18.224;2023-04-01T02:24:49;17.10;;;7.80;;
57325;SDS011;43161;50.950;18.224;2023-04-01T02:27:16;19.60;;;9.00;;
57325;SDS011;43161;50.950;18.224;2023-04-01T02:29:42;18.30;;;9.20;;
57325;SDS011;43161;50.950;18.224;2023-04-01T02:32:08;16.40;;;8.70;;
57325;SDS011;43161;50.950;18.224;2023-04-01T02:34:34;17.00;;;9.10;;
57325;SDS011;43161;50.950;18.224;2023-04-01T02:37:00;16.10;;;9.60;;
57325;SDS011;43161;50.950;18.224;2023-04-01T02:39:26;16.60;;;9.20;;
57325;SDS011;43161;50.950;18.224;2023-04-01T02:41:52;16.30;;;9.60;;
57325;SDS011;43161;50.950;18.224;2023-04-01T02:44:18;17.10;;;9.20;;
57325;SDS011;43161;50.950;18.224;2023-04-01T02:46:44;17.40;;;10.20;;
57325;SDS011;43161;50.950;18.224;2023-04-01T02:49:10;16.90;;;9.70;;
57325;SDS011;43161;50.950;18.224;2023-04-01T02:51:36;18.60;;;9.90;;
57325;SDS011;43161;50.950;18.224;2023-04-01T02:54:02;17.20;;;8.70;;
57325;SDS011;43161;50.950;18.224;2023-04-01T02:56:28;16.40;;;9.30;;
57325;SDS011;43161;50.950;18.224;2023-04-01T02:58:54;15.50;;;8.80;;
57325;SDS011;43161;50.950;18.224;2023-04-01T03:01:20;17.10;;;8.80;;
57325;SDS011;43161;50.950;18.224;2023-04-01T03:03:47;15.80;;;8.80;;
57325;SDS011;43161;50.950;18.224;2023-04-01T03:06:13;14.60;;;9.60;;
57325;SDS011;43161;50.950;18.224;2023-04-01T03:08:40;15.50;;;8.80;;
57325;SDS011;43161;50.950;18.224;2023-04-01T03:11:06;16.40;;;9.00;;
57325;SDS011;43161;50.950;18.224;2023-04-01T03:13:32;18.60;;;9.00;;
57325;SDS011;43161;50.950;18.224;2023-04-01T03:15:58;16.50;;;8.60;;
57325;SDS011;43161;50.950;18.224;2023-04-01T03:18:23;14.40;;;8.40;;
57325;SDS011;43161;50.950;18.224;2023-04-01T03:20:49;16.60;;;8.70;;
57325;SDS011;43161;50.950;18.224;2023-04-01T03:23:15;16.90;;;9.20;;
57325;SDS011;43161;50.950;18.224;2023-04-01T03:25:43;16.40;;;9.50;;
57325;SDS011;43161;50.950;18.224;2023-04-01T03:28:08;16.40;;;8.90;;
57325;SDS011;43161;50.950;18.224;2023-04-01T03:30:35;15.60;;;8.80;;
57325;SDS011;43161;50.950;18.224;2023-04-01T03:33:01;16.00;;;8.60;;
57325;SDS011;43161;50.950;18.224;2023-04-01T03:35:27;14.90;;;8.40;;
57325;SDS011;43161;50.950;18.224;2023-04-01T03:37:53;16.70;;;8.20;;
57325;SDS011;43161;50.950;18.224;2023-04-01T03:40:19;17.60;;;8.40;;
57325;SDS011;43161;50.950;18.224;2023-04-01T03:42:46;16.10;;;7.50;;
57325;SDS011;43161;50.950;18.224;2023-04-01T03:45:12;14.90;;;8.30;;
57325;SDS011;43161;50.950;18.224;2023-04-01T03:47:38;16.00;;;8.90;;
57325;SDS011;43161;50.950;18.224;2023-04-01T03:50:05;15.70;;;8.40;;
57325;SDS011;43161;50.950;18.224;2023-04-01T03:52:32;15.50;;;8.40;;
57325;SDS011;43161;50.950;18.224;2023-04-01T03:54:58;16.00;;;8.70;;
57325;SDS011;43161;50.950;18.224;2023-04-01T03:57:24;18.50;;;9.30;;
57325;SDS011;43161;50.950;18.224;2023-04-01T03:59:50;19.20;;;8.90;;
57325;SDS011;43161;50.950;18.224;2023-04-01T04:02:15;16.80;;;8.90;;
57325;SDS011;43161;50.950;18.224;2023-04-01T04:04:41;16.20;;;7.80;;
57325;SDS011;43161;50.950;18.224;2023-04-01T04:07:07;16.40;;;8.70;;
57325;SDS011;43161;50.950;18.224;2023-04-01T04:09:33;16.20;;;8.10;;
57325;SDS011;43161;50.950;18.224;2023-04-01T04:11:59;15.00;;;8.00;;
57325;SDS011;43161;50.950;18.224;2023-04-01T04:14:25;18.10;;;10.80;;
57325;SDS011;43161;50.950;18.224;2023-04-01T04:16:51;19.50;;;10.70;;
57325;SDS011;43161;50.950;18.224;2023-04-01T04:19:17;14.60;;;8.40;;
57325;SDS011;43161;50.950;18.224;2023-04-01T04:21:42;16.60;;;8.70;;
57325;SDS011;43161;50.950;18.224;2023-04-01T04:24:09;14.50;;;8.40;;
57325;SDS011;43161;50.950;18.224;2023-04-01T04:26:35;16.00;;;8.40;;
57325;SDS011;43161;50.950;18.224;2023-04-01T04:29:01;15.40;;;8.70;;
57325;SDS011;43161;50.950;18.224;2023-04-01T04:31:27;15.10;;;8.20;;
57325;SDS011;43161;50.950;18.224;2023-04-01T04:33:53;13.10;;;7.20;;
57325;SDS011;43161;50.950;18.224;2023-04-01T04:36:20;15.50;;;7.50;;
57325;SDS011;43161;50.950;18.224;2023-04-01T04:38:47;16.40;;;8.40;;
57325;SDS011;43161;50.950;18.224;2023-04-01T04:41:16;15.30;;;8.50;;
57325;SDS011;43161;50.950;18.224;2023-04-01T04:43:48;17.50;;;8.60;;
57325;SDS011;43161;50.950;18.224;2023-04-01T04:46:18;16.50;;;7.90;;
57325;SDS011;43161;50.950;18.224;2023-04-01T04:48:44;14.50;;;8.30;;
57325;SDS011;43161;50.950;18.224;2023-04-01T04:51:17;16.40;;;7.80;;
57325;SDS011;43161;50.950;18.224;2023-04-01T04:53:44;15.80;;;8.20;;
57325;SDS011;43161;50.950;18.224;2023-04-01T04:56:10;17.70;;;8.20;;
57325;SDS011;43161;50.950;18.224;2023-04-01T04:58:37;16.80;;;8.30;;
57325;SDS011;43161;50.950;18.224;2023-04-01T05:01:13;17.40;;;8.50;;
57325;SDS011;43161;50.950;18.224;2023-04-01T05:03:40;17.80;;;8.40;;
57325;SDS011;43161;50.950;18.224;2023-04-01T05:06:07;15.90;;;7.70;;
57325;SDS011;43161;50.950;18.224;2023-04-01T05:08:34;17.40;;;8.00;;
57325;SDS011;43161;50.950;18.224;2023-04-01T05:11:00;14.80;;;7.40;;
57325;SDS011;43161;50.950;18.224;2023-04-01T05:13:27;16.30;;;8.40;;
57325;SDS011;43161;50.950;18.224;2023-04-01T05:15:53;15.70;;;7.90;;
57325;SDS011;43161;50.950;18.224;2023-04-01T05:18:18;14.40;;;7.70;;
57325;SDS011;43161;50.950;18.224;2023-04-01T05:20:48;14.30;;;7.30;;
57325;SDS011;43161;50.950;18.224;2023-04-01T05:23:18;15.70;;;7.30;;
57325;SDS011;43161;50.950;18.224;2023-04-01T05:25:46;14.10;;;7.10;;
57325;SDS011;43161;50.950;18.224;2023-04-01T05:28:16;16.20;;;7.80;;
57325;SDS011;43161;50.950;18.224;2023-04-01T05:30:43;13.70;;;7.20;;
57325;SDS011;43161;50.950;18.224;2023-04-01T05:33:09;13.80;;;6.80;;
57325;SDS011;43161;50.950;18.224;2023-04-01T05:35:36;17.00;;;8.10;;
57325;SDS011;43161;50.950;18.224;2023-04-01T05:38:02;16.30;;;8.40;;
57325;SDS011;43161;50.950;18.224;2023-04-01T05:40:28;29.00;;;16.70;;
57325;SDS011;43161;50.950;18.224;2023-04-01T05:42:54;74.20;;;41.40;;
57325;SDS011;43161;50.950;18.224;2023-04-01T05:45:20;34.70;;;17.70;;
57325;SDS011;43161;50.950;18.224;2023-04-01T05:47:45;33.00;;;15.50;;
57325;SDS011;43161;50.950;18.224;2023-04-01T05:50:11;31.60;;;17.20;;
57325;SDS011;43161;50.950;18.224;2023-04-01T05:52:37;21.60;;;12.00;;
57325;SDS011;43161;50.950;18.224;2023-04-01T05:55:03;16.40;;;9.70;;
57325;SDS011;43161;50.950;18.224;2023-04-01T05:57:30;17.60;;;9.00;;
57325;SDS011;43161;50.950;18.224;2023-04-01T05:59:56;16.60;;;8.50;;
57325;SDS011;43161;50.950;18.224;2023-04-01T06:02:22;20.20;;;8.90;;
57325;SDS011;43161;50.950;18.224;2023-04-01T06:04:47;17.40;;;9.30;;
57325;SDS011;43161;50.950;18.224;2023-04-01T06:07:14;29.50;;;17.20;;
57325;SDS011;43161;50.950;18.224;2023-04-01T06:09:42;32.70;;;17.90;;
57325;SDS011;43161;50.950;18.224;2023-04-01T06:14:47;34.10;;;20.70;;
57325;SDS011;43161;50.950;18.224;2023-04-01T06:51:02;16.80;;;9.20;;
57325;SDS011;43161;50.950;18.224;2023-04-01T06:56:09;16.00;;;9.60;;
57325;SDS011;43161;50.950;18.224;2023-04-01T06:58:56;16.00;;;9.70;;
57325;SDS011;43161;50.950;18.224;2023-04-01T07:06:55;14.10;;;9.10;;
57325;SDS011;43161;50.950;18.224;2023-04-01T07:09:25;14.50;;;7.50;;
57325;SDS011;43161;50.950;18.224;2023-04-01T07:11:53;11.10;;;5.70;;
57325;SDS011;43161;50.950;18.224;2023-04-01T07:14:30;11.90;;;5.80;;
57325;SDS011;43161;50.950;18.224;2023-04-01T07:16:59;16.80;;;8.20;;
57325;SDS011;43161;50.950;18.224;2023-04-01T07:19:42;12.70;;;6.10;;
57325;SDS011;43161;50.950;18.224;2023-04-01T07:24:54;24.10;;;14.50;;
57325;SDS011;43161;50.950;18.224;2023-04-01T07:27:23;11.60;;;5.00;;
57325;SDS011;43161;50.950;18.224;2023-04-01T07:29:49;30.50;;;18.10;;
57325;SDS011;43161;50.950;18.224;2023-04-01T07:32:17;17.00;;;9.20;;
57325;SDS011;43161;50.950;18.224;2023-04-01T07:34:51;63.60;;;27.50;;
57325;SDS011;43161;50.950;18.224;2023-04-01T07:45:31;12.40;;;6.00;;
57325;SDS011;43161;50.950;18.224;2023-04-01T07:50:29;11.60;;;5.70;;
57325;SDS011;43161;50.950;18.224;2023-04-01T08:22:27;11.00;;;5.10;;
57325;SDS011;43161;50.950;18.224;2023-04-01T08:25:17;13.00;;;4.50;;
57325;SDS011;43161;50.950;18.224;2023-04-01T08:27:48;10.90;;;5.10;;
57325;SDS011;43161;50.950;18.224;2023-04-01T08:37:57;10.30;;;4.90;;
57325;SDS011;43161;50.950;18.224;2023-04-01T08:40:37;9.30;;;4.20;;
57325;SDS011;43161;50.950;18.224;2023-04-01T08:46:00;9.00;;;3.80;;
57325;SDS011;43161;50.950;18.224;2023-04-01T09:04:43;8.70;;;3.70;;
57325;SDS011;43161;50.950;18.224;2023-04-01T09:07:24;8.90;;;4.10;;
57325;SDS011;43161;50.950;18.224;2023-04-01T09:13:05;8.70;;;4.00;;
57325;SDS011;43161;50.950;18.224;2023-04-01T09:21:25;9.00;;;3.80;;
57325;SDS011;43161;50.950;18.224;2023-04-01T09:40:15;10.20;;;4.60;;
57325;SDS011;43161;50.950;18.224;2023-04-01T09:42:45;11.20;;;5.70;;
57325;SDS011;43161;50.950;18.224;2023-04-01T10:13:00;11.90;;;5.90;;
57325;SDS011;43161;50.950;18.224;2023-04-01T10:15:50;15.00;;;7.00;;
57325;SDS011;43161;50.950;18.224;2023-04-01T10:36:55;11.30;;;6.00;;
57325;SDS011;43161;50.950;18.224;2023-04-01T10:53:34;11.40;;;4.90;;
57325;SDS011;43161;50.950;18.224;2023-04-01T10:56:28;11.40;;;4.70;;
57325;SDS011;43161;50.950;18.224;2023-04-01T11:28:44;8.80;;;2.90;;
57325;SDS011;43161;50.950;18.224;2023-04-01T11:42:39;10.10;;;3.20;;
57325;SDS011;43161;50.950;18.224;2023-04-01T11:50:44;12.70;;;5.90;;
57325;SDS011;43161;50.950;18.224;2023-04-01T11:53:31;9.90;;;3.70;;
57325;SDS011;43161;50.950;18.224;2023-04-01T12:09:58;11.60;;;5.60;;
57325;SDS011;43161;50.950;18.224;2023-04-01T12:18:33;10.80;;;4.50;;
57325;SDS011;43161;50.950;18.224;2023-04-01T12:21:03;11.10;;;5.10;;
57325;SDS011;43161;50.950;18.224;2023-04-01T12:32:19;11.80;;;5.00;;
57325;SDS011;43161;50.950;18.224;2023-04-01T12:54:56;62.00;;;27.70;;
57325;SDS011;43161;50.950;18.224;2023-04-01T13:11:37;39.20;;;19.20;;
57325;SDS011;43161;50.950;18.224;2023-04-01T13:30:48;162.10;;;55.40;;
57325;SDS011;43161;50.950;18.224;2023-04-01T13:42:05;73.60;;;36.00;;
57325;SDS011;43161;50.950;18.224;2023-04-01T14:10:59;8.60;;;3.40;;
57325;SDS011;43161;50.950;18.224;2023-04-01T14:19:33;9.60;;;5.30;;
57325;SDS011;43161;50.950;18.224;2023-04-01T14:24:45;9.00;;;3.20;;
57325;SDS011;43161;50.950;18.224;2023-04-01T14:27:21;12.00;;;4.70;;
57325;SDS011;43161;50.950;18.224;2023-04-01T14:32:34;3.80;;;1.10;;
57325;SDS011;43161;50.950;18.224;2023-04-01T14:35:11;4.90;;;1.30;;
57325;SDS011;43161;50.950;18.224;2023-04-01T14:48:49;14.10;;;5.30;;
57325;SDS011;43161;50.950;18.224;2023-04-01T14:54:30;17.60;;;7.90;;
57325;SDS011;43161;50.950;18.224;2023-04-01T14:56:50;12.30;;;5.30;;
57325;SDS011;43161;50.950;18.224;2023-04-01T14:59:28;15.60;;;6.80;;
57325;SDS011;43161;50.950;18.224;2023-04-01T15:10:42;26.00;;;9.50;;
57325;SDS011;43161;50.950;18.224;2023-04-01T15:16:18;14.10;;;5.60;;
57325;SDS011;43161;50.950;18.224;2023-04-01T15:26:26;23.20;;;7.40;;
57325;SDS011;43161;50.950;18.224;2023-04-01T15:45:15;21.90;;;10.60;;
57325;SDS011;43161;50.950;18.224;2023-04-01T15:53:07;19.40;;;10.30;;
57325;SDS011;43161;50.950;18.224;2023-04-01T16:09:54;15.80;;;6.40;;
57325;SDS011;43161;50.950;18.224;2023-04-01T16:20:20;16.60;;;7.00;;
57325;SDS011;43161;50.950;18.224;2023-04-01T16:25:39;18.90;;;7.40;;
57325;SDS011;43161;50.950;18.224;2023-04-01T16:31:03;89.60;;;39.60;;
57325;SDS011;43161;50.950;18.224;2023-04-01T16:45:01;27.20;;;15.20;;
57325;SDS011;43161;50.950;18.224;2023-04-01T16:50:39;40.60;;;24.00;;
57325;SDS011;43161;50.950;18.224;2023-04-01T16:53:34;22.10;;;9.50;;
57325;SDS011;43161;50.950;18.224;2023-04-01T16:58:27;44.40;;;25.30;;
57325;SDS011;43161;50.950;18.224;2023-04-01T17:01:02;41.30;;;20.80;;
57325;SDS011;43161;50.950;18.224;2023-04-01T17:03:46;74.30;;;37.30;;
57325;SDS011;43161;50.950;18.224;2023-04-01T17:14:44;51.70;;;26.10;;
57325;SDS011;43161;50.950;18.224;2023-04-01T17:23:12;70.50;;;43.20;;
57325;SDS011;43161;50.950;18.224;2023-04-01T17:39:20;47.60;;;24.60;;
57325;SDS011;43161;50.950;18.224;2023-04-01T17:41:54;54.50;;;26.70;;
57325;SDS011;43161;50.950;18.224;2023-04-01T17:44:31;76.30;;;36.40;;
57325;SDS011;43161;50.950;18.224;2023-04-01T17:52:52;118.00;;;53.80;;
57325;SDS011;43161;50.950;18.224;2023-04-01T18:16:55;54.00;;;24.10;;
57325;SDS011;43161;50.950;18.224;2023-04-01T18:30:43;60.20;;;25.70;;
57325;SDS011;43161;50.950;18.224;2023-04-01T18:35:52;62.90;;;28.10;;
57325;SDS011;43161;50.950;18.224;2023-04-01T18:49:29;69.10;;;29.80;;
57325;SDS011;43161;50.950;18.224;2023-04-01T18:57:42;64.80;;;28.10;;
57325;SDS011;43161;50.950;18.224;2023-04-01T19:00:13;66.20;;;27.60;;
57325;SDS011;43161;50.950;18.224;2023-04-01T19:02:45;65.50;;;29.00;;
57325;SDS011;43161;50.950;18.224;2023-04-01T19:05:19;65.70;;;28.00;;
57325;SDS011;43161;50.950;18.224;2023-04-01T19:07:53;68.20;;;29.10;;
57325;SDS011;43161;50.950;18.224;2023-04-01T19:18:24;71.60;;;29.90;;
57325;SDS011;43161;50.950;18.224;2023-04-01T19:23:53;63.90;;;28.80;;
57325;SDS011;43161;50.950;18.224;2023-04-01T19:36:59;54.60;;;22.80;;
57325;SDS011;43161;50.950;18.224;2023-04-01T19:39:39;56.80;;;23.70;;
57325;SDS011;43161;50.950;18.224;2023-04-01T19:42:32;60.90;;;23.30;;
57325;SDS011;43161;50.950;18.224;2023-04-01T19:56:16;57.30;;;22.80;;
57325;SDS011;43161;50.950;18.224;2023-04-01T20:04:14;63.60;;;26.50;;
57325;SDS011;43161;50.950;18.224;2023-04-01T20:06:54;67.10;;;25.40;;
57325;SDS011;43161;50.950;18.224;2023-04-01T20:15:22;58.90;;;24.60;;
57325;SDS011;43161;50.950;18.224;2023-04-01T20:20:56;58.20;;;25.30;;
57325;SDS011;43161;50.950;18.224;2023-04-01T20:26:09;57.80;;;24.70;;
57325;SDS011;43161;50.950;18.224;2023-04-01T20:28:44;57.10;;;24.60;;
57325;SDS011;43161;50.950;18.224;2023-04-01T20:46:53;52.80;;;22.30;;
57325;SDS011;43161;50.950;18.224;2023-04-01T21:03:18;51.20;;;22.00;;
57325;SDS011;43161;50.950;18.224;2023-04-01T21:08:36;59.80;;;22.10;;
57325;SDS011;43161;50.950;18.224;2023-04-01T21:24:48;50.70;;;20.80;;
57325;SDS011;43161;50.950;18.224;2023-04-01T22:27:58;50.50;;;21.50;;
57325;SDS011;43161;50.950;18.224;2023-04-01T22:31:05;52.40;;;21.60;;
57325;SDS011;43161;50.950;18.224;2023-04-01T22:41:43;53.30;;;19.70;;
57325;SDS011;43161;50.950;18.224;2023-04-01T22:44:20;48.90;;;20.50;;
57325;SDS011;43161;50.950;18.224;2023-04-01T22:52:45;54.80;;;21.80;;
57325;SDS011;43161;50.950;18.224;2023-04-01T22:55:17;53.50;;;21.10;;
57325;SDS011;43161;50.950;18.224;2023-04-01T22:57:52;48.50;;;19.70;;
57325;SDS011;43161;50.950;18.224;2023-04-01T23:00:22;48.90;;;20.10;;
57325;SDS011;43161;50.950;18.224;2023-04-01T23:05:34;58.20;;;21.50;;
57325;SDS011;43161;50.950;18.224;2023-04-01T23:11:04;47.20;;;19.50;;
57325;SDS011;43161;50.950;18.224;2023-04-01T23:13:34;50.90;;;19.80;;
57325;SDS011;43161;50.950;18.224;2023-04-01T23:16:05;45.30;;;18.80;;
57325;SDS011;43161;50.950;18.224;2023-04-01T23:21:18;47.10;;;21.00;;
57325;SDS011;43161;50.950;18.224;2023-04-01T23:24:25;47.20;;;20.00;;
57325;SDS011;43161;50.950;18.224;2023-04-01T23:26:50;52.60;;;19.70;;
57325;SDS011;43161;50.950;18.224;2023-04-01T23:29:20;44.90;;;18.90;;
57325;SDS011;43161;50.950;18.224;2023-04-01T23:31:47;45.20;;;20.30;;
57325;SDS011;43161;50.950;18.224;2023-04-01T23:34:23;44.40;;;17.50;;
57325;SDS011;43161;50.950;18.224;2023-04-01T23:36:53;40.10;;;17.10;;
57325;SDS011;43161;50.950;18.224;2023-04-01T23:39:23;37.50;;;17.10;;
57325;SDS011;43161;50.950;18.224;2023-04-01T23:41:51;36.80;;;17.20;;
57325;SDS011;43161;50.950;18.224;2023-04-01T23:44:18;44.30;;;19.10;;
57325;SDS011;43161;50.950;18.224;2023-04-01T23:46:45;42.90;;;19.10;;
57325;SDS011;43161;50.950;18.224;2023-04-01T23:49:13;45.60;;;19.60;;
57325;SDS011;43161;50.950;18.224;2023-04-01T23:57:18;51.40;;;20.60;;
57325;SDS011;43161;50.950;18.224;2023-04-01T23:59:58;50.00;;;21.30;;
